sensor_id;sensor_type;location;lat;lon;timestamp;pressure;altitude;pressure_sealevel;temperature;humidity
70921;BME280;58572;48.110;19.838;2023-12-07T00:00:47;97505.13;;;3.72;75.93
70921;BME280;58572;48.110;19.838;2023-12-07T00:03:14;97507.22;;;3.87;74.53
70921;BME280;58572;48.110;19.838;2023-12-07T00:05:42;97515.97;;;3.38;79.01
70921;BME280;58572;48.110;19.838;2023-12-07T00:08:09;97503.22;;;3.89;75.53
70921;BME280;58572;48.110;19.838;2023-12-07T00:10:38;97509.28;;;3.07;79.77
70921;BME280;58572;48.110;19.838;2023-12-07T00:13:05;97507.59;;;3.73;76.09
70921;BME280;58572;48.110;19.838;2023-12-07T00:15:33;97507.66;;;3.40;78.69
70921;BME280;58572;48.110;19.838;2023-12-07T00:18:00;97503.66;;;3.42;76.43
70921;BME280;58572;48.110;19.838;2023-12-07T00:20:28;97511.16;;;3.40;76.76
70921;BME280;58572;48.110;19.838;2023-12-07T00:22:55;97443.03;;;3.30;75.51
70921;BME280;58572;48.110;19.838;2023-12-07T00:25:22;97505.19;;;3.55;75.74
70921;BME280;58572;48.110;19.838;2023-12-07T00:27:51;97453.28;;;2.32;82.61
70921;BME280;58572;48.110;19.838;2023-12-07T00:30:18;97423.03;;;2.20;81.12
70921;BME280;58572;48.110;19.838;2023-12-07T00:32:46;97512.16;;;3.17;80.92
70921;BME280;58572;48.110;19.838;2023-12-07T00:35:13;97508.63;;;3.34;78.87
70921;BME280;58572;48.110;19.838;2023-12-07T00:37:41;97508.56;;;3.67;76.26
70921;BME280;58572;48.110;19.838;2023-12-07T00:40:09;97418.81;;;2.91;78.22
70921;BME280;58572;48.110;19.838;2023-12-07T00:42:38;97388.41;;;2.18;81.67
70921;BME280;58572;48.110;19.838;2023-12-07T00:45:07;97506.28;;;3.76;77.16
70921;BME280;58572;48.110;19.838;2023-12-07T00:47:34;97414.03;;;2.26;81.42
70921;BME280;58572;48.110;19.838;2023-12-07T00:50:01;97496.47;;;3.87;77.13
70921;BME280;58572;48.110;19.838;2023-12-07T00:52:29;97505.53;;;2.92;81.36
70921;BME280;58572;48.110;19.838;2023-12-07T00:54:56;97502.13;;;2.96;82.50
70921;BME280;58572;48.110;19.838;2023-12-07T00:57:23;97507.03;;;3.16;79.00
70921;BME280;58572;48.110;19.838;2023-12-07T00:59:52;97505.69;;;2.85;81.71
70921;BME280;58572;48.110;19.838;2023-12-07T01:02:20;97328.88;;;1.88;80.70
70921;BME280;58572;48.110;19.838;2023-12-07T01:04:47;97504.56;;;2.81;82.09
70921;BME280;58572;48.110;19.838;2023-12-07T01:07:15;97497.59;;;3.13;79.86
70921;BME280;58572;48.110;19.838;2023-12-07T01:09:42;97499.69;;;3.11;80.37
70921;BME280;58572;48.110;19.838;2023-12-07T01:12:09;97505.69;;;2.85;81.36
70921;BME280;58572;48.110;19.838;2023-12-07T01:14:36;97436.81;;;2.57;81.62
70921;BME280;58572;48.110;19.838;2023-12-07T01:17:03;97496.66;;;2.58;83.25
70921;BME280;58572;48.110;19.838;2023-12-07T01:19:32;97499.59;;;2.89;82.62
70921;BME280;58572;48.110;19.838;2023-12-07T01:22:00;97492.66;;;3.44;77.96
70921;BME280;58572;48.110;19.838;2023-12-07T01:24:27;97493.50;;;3.11;80.59
70921;BME280;58572;48.110;19.838;2023-12-07T01:26:54;97425.81;;;2.59;80.51
70921;BME280;58572;48.110;19.838;2023-12-07T01:29:22;97327.66;;;1.96;81.70
70921;BME280;58572;48.110;19.838;2023-12-07T01:31:49;97489.44;;;3.08;80.98
70921;BME280;58572;48.110;19.838;2023-12-07T01:34:17;97489.09;;;3.05;81.12
70921;BME280;58572;48.110;19.838;2023-12-07T01:36:46;97488.13;;;3.28;79.82
70921;BME280;58572;48.110;19.838;2023-12-07T01:39:13;97490.63;;;3.51;79.93
70921;BME280;58572;48.110;19.838;2023-12-07T01:41:41;97482.50;;;3.90;76.27
70921;BME280;58572;48.110;19.838;2023-12-07T01:44:08;97460.81;;;3.74;75.64
70921;BME280;58572;48.110;19.838;2023-12-07T01:46:36;97485.50;;;4.15;74.48
70921;BME280;58572;48.110;19.838;2023-12-07T01:49:04;97480.50;;;3.80;77.59
70921;BME280;58572;48.110;19.838;2023-12-07T01:51:31;97486.00;;;3.90;75.83
70921;BME280;58572;48.110;19.838;2023-12-07T01:53:59;97396.66;;;3.17;75.27
70921;BME280;58572;48.110;19.838;2023-12-07T01:56:27;97488.44;;;3.48;76.79
70921;BME280;58572;48.110;19.838;2023-12-07T01:58:54;97484.72;;;3.15;80.98
70921;BME280;58572;48.110;19.838;2023-12-07T02:01:22;97493.19;;;3.24;79.50
70921;BME280;58572;48.110;19.838;2023-12-07T02:03:49;97477.50;;;3.55;78.13
70921;BME280;58572;48.110;19.838;2023-12-07T02:06:17;97480.88;;;3.89;76.73
70921;BME280;58572;48.110;19.838;2023-12-07T02:08:44;97474.81;;;4.20;74.54
70921;BME280;58572;48.110;19.838;2023-12-07T02:11:13;97481.13;;;3.87;75.05
70921;BME280;58572;48.110;19.838;2023-12-07T02:13:41;97481.56;;;4.01;75.15
70921;BME280;58572;48.110;19.838;2023-12-07T02:16:13;97488.06;;;3.61;76.79
70921;BME280;58572;48.110;19.838;2023-12-07T02:18:46;97483.06;;;3.48;78.54
70921;BME280;58572;48.110;19.838;2023-12-07T02:21:21;97367.38;;;3.16;75.26
70921;BME280;58572;48.110;19.838;2023-12-07T02:23:52;97487.72;;;3.36;79.12
70921;BME280;58572;48.110;19.838;2023-12-07T02:26:20;97484.50;;;3.56;76.47
70921;BME280;58572;48.110;19.838;2023-12-07T02:28:50;97484.69;;;3.49;77.56
70921;BME280;58572;48.110;19.838;2023-12-07T02:31:17;97488.94;;;3.89;75.63
70921;BME280;58572;48.110;19.838;2023-12-07T02:33:45;97485.38;;;4.05;74.57
70921;BME280;58572;48.110;19.838;2023-12-07T02:36:13;97489.06;;;3.55;78.88
70921;BME280;58572;48.110;19.838;2023-12-07T02:38:42;97494.25;;;4.05;75.81
70921;BME280;58572;48.110;19.838;2023-12-07T02:41:11;97491.91;;;3.87;74.27
70921;BME280;58572;48.110;19.838;2023-12-07T02:43:38;97494.44;;;3.55;76.67
70921;BME280;58572;48.110;19.838;2023-12-07T02:46:07;97323.78;;;2.53;76.66
70921;BME280;58572;48.110;19.838;2023-12-07T02:48:34;97498.84;;;4.05;74.87
70921;BME280;58572;48.110;19.838;2023-12-07T02:51:02;97417.50;;;3.71;73.29
70921;BME280;58572;48.110;19.838;2023-12-07T02:53:29;97441.97;;;3.31;76.32
70921;BME280;58572;48.110;19.838;2023-12-07T02:55:56;97496.59;;;3.97;75.99
70921;BME280;58572;48.110;19.838;2023-12-07T02:58:23;97500.72;;;4.26;73.56
70921;BME280;58572;48.110;19.838;2023-12-07T03:00:50;97501.38;;;3.73;76.77
70921;BME280;58572;48.110;19.838;2023-12-07T03:03:19;97502.59;;;3.82;74.83
70921;BME280;58572;48.110;19.838;2023-12-07T03:05:46;97506.44;;;3.69;75.99
70921;BME280;58572;48.110;19.838;2023-12-07T03:08:13;97511.47;;;3.44;77.22
70921;BME280;58572;48.110;19.838;2023-12-07T03:10:40;97514.50;;;3.31;77.78
70921;BME280;58572;48.110;19.838;2023-12-07T03:13:07;97515.22;;;3.81;76.79
70921;BME280;58572;48.110;19.838;2023-12-07T03:15:35;97412.19;;;3.32;74.47
70921;BME280;58572;48.110;19.838;2023-12-07T03:18:02;97512.06;;;3.12;79.21
70921;BME280;58572;48.110;19.838;2023-12-07T03:20:31;97506.09;;;3.82;75.63
70921;BME280;58572;48.110;19.838;2023-12-07T03:22:58;97518.53;;;4.10;74.48
70921;BME280;58572;48.110;19.838;2023-12-07T03:25:25;97442.69;;;3.87;73.04
70921;BME280;58572;48.110;19.838;2023-12-07T03:27:52;97524.09;;;4.04;73.81
70921;BME280;58572;48.110;19.838;2023-12-07T03:30:19;97521.78;;;4.34;73.01
70921;BME280;58572;48.110;19.838;2023-12-07T03:32:47;97524.22;;;4.14;72.82
70921;BME280;58572;48.110;19.838;2023-12-07T03:35:14;97414.97;;;3.20;73.55
70921;BME280;58572;48.110;19.838;2023-12-07T03:37:43;97531.09;;;4.05;73.59
70921;BME280;58572;48.110;19.838;2023-12-07T03:40:11;97494.00;;;3.63;75.44
70921;BME280;58572;48.110;19.838;2023-12-07T03:42:38;97531.25;;;3.55;77.08
70921;BME280;58572;48.110;19.838;2023-12-07T03:45:06;97533.16;;;3.98;74.57
70921;BME280;58572;48.110;19.838;2023-12-07T03:47:34;97526.69;;;3.55;77.56
70921;BME280;58572;48.110;19.838;2023-12-07T03:50:01;97540.03;;;3.50;77.48
70921;BME280;58572;48.110;19.838;2023-12-07T03:52:28;97539.41;;;3.81;77.62
70921;BME280;58572;48.110;19.838;2023-12-07T03:54:56;97519.47;;;3.77;74.55
70921;BME280;58572;48.110;19.838;2023-12-07T03:57:24;97550.94;;;3.10;80.03
70921;BME280;58572;48.110;19.838;2023-12-07T03:59:51;97544.72;;;3.76;77.88
70921;BME280;58572;48.110;19.838;2023-12-07T04:02:19;97540.97;;;3.77;75.34
70921;BME280;58572;48.110;19.838;2023-12-07T04:04:46;97540.31;;;4.09;73.69
70921;BME280;58572;48.110;19.838;2023-12-07T04:07:13;97551.91;;;3.71;76.42
70921;BME280;58572;48.110;19.838;2023-12-07T04:09:40;97553.84;;;3.75;75.14
70921;BME280;58572;48.110;19.838;2023-12-07T04:12:09;97546.97;;;4.23;73.70
70921;BME280;58572;48.110;19.838;2023-12-07T04:14:36;97550.66;;;4.17;74.04
70921;BME280;58572;48.110;19.838;2023-12-07T04:17:03;97553.13;;;4.02;73.89
70921;BME280;58572;48.110;19.838;2023-12-07T04:19:30;97545.53;;;3.77;75.72
70921;BME280;58572;48.110;19.838;2023-12-07T04:21:58;97550.38;;;3.97;74.00
70921;BME280;58572;48.110;19.838;2023-12-07T04:24:25;97438.00;;;3.55;72.81
70921;BME280;58572;48.110;19.838;2023-12-07T04:26:52;97549.53;;;4.35;72.75
70921;BME280;58572;48.110;19.838;2023-12-07T04:29:21;97553.56;;;4.15;75.71
70921;BME280;58572;48.110;19.838;2023-12-07T04:31:48;97548.25;;;3.99;75.31
70921;BME280;58572;48.110;19.838;2023-12-07T04:34:15;97553.41;;;4.22;73.73
70921;BME280;58572;48.110;19.838;2023-12-07T04:36:42;97554.16;;;4.39;72.39
70921;BME280;58572;48.110;19.838;2023-12-07T04:39:09;97494.47;;;3.99;72.66
70921;BME280;58572;48.110;19.838;2023-12-07T04:41:36;97553.81;;;4.14;73.26
70921;BME280;58572;48.110;19.838;2023-12-07T04:44:04;97558.16;;;4.37;72.33
70921;BME280;58572;48.110;19.838;2023-12-07T04:46:33;97558.78;;;4.22;73.12
70921;BME280;58572;48.110;19.838;2023-12-07T04:49:01;97554.03;;;4.29;72.46
70921;BME280;58572;48.110;19.838;2023-12-07T04:51:28;97398.13;;;3.25;72.51
70921;BME280;58572;48.110;19.838;2023-12-07T04:53:54;97554.38;;;4.16;72.92
70921;BME280;58572;48.110;19.838;2023-12-07T04:56:21;97564.00;;;4.12;73.16
70921;BME280;58572;48.110;19.838;2023-12-07T04:58:49;97537.41;;;3.94;73.13
70921;BME280;58572;48.110;19.838;2023-12-07T05:01:16;97565.59;;;4.30;72.88
70921;BME280;58572;48.110;19.838;2023-12-07T05:03:45;97558.13;;;4.15;72.59
70921;BME280;58572;48.110;19.838;2023-12-07T05:06:13;97565.34;;;4.31;72.17
70921;BME280;58572;48.110;19.838;2023-12-07T05:08:40;97570.69;;;4.09;72.75
70921;BME280;58572;48.110;19.838;2023-12-07T05:11:09;97562.84;;;4.25;73.06
70921;BME280;58572;48.110;19.838;2023-12-07T05:13:36;97564.41;;;4.42;71.71
70921;BME280;58572;48.110;19.838;2023-12-07T05:16:04;97569.16;;;4.35;72.59
70921;BME280;58572;48.110;19.838;2023-12-07T05:18:31;97569.56;;;4.22;72.07
70921;BME280;58572;48.110;19.838;2023-12-07T05:20:59;97484.13;;;3.91;72.13
70921;BME280;58572;48.110;19.838;2023-12-07T05:23:27;97571.28;;;4.33;72.25
70921;BME280;58572;48.110;19.838;2023-12-07T05:25:54;97572.81;;;4.24;72.21
70921;BME280;58572;48.110;19.838;2023-12-07T05:28:21;97579.81;;;4.25;72.09
70921;BME280;58572;48.110;19.838;2023-12-07T05:30:48;97581.47;;;4.09;72.23
70921;BME280;58572;48.110;19.838;2023-12-07T05:33:15;97585.25;;;4.30;71.76
70921;BME280;58572;48.110;19.838;2023-12-07T05:35:42;97427.91;;;3.24;72.66
70921;BME280;58572;48.110;19.838;2023-12-07T05:38:11;97587.56;;;4.43;71.66
70921;BME280;58572;48.110;19.838;2023-12-07T05:40:38;97586.94;;;4.36;71.85
70921;BME280;58572;48.110;19.838;2023-12-07T05:43:05;97588.56;;;4.37;71.78
70921;BME280;58572;48.110;19.838;2023-12-07T05:45:33;97596.03;;;4.30;72.04
70921;BME280;58572;48.110;19.838;2023-12-07T05:48:00;97563.41;;;4.27;71.64
70921;BME280;58572;48.110;19.838;2023-12-07T05:50:27;97600.53;;;4.25;72.19
70921;BME280;58572;48.110;19.838;2023-12-07T05:52:55;97591.06;;;4.22;72.04
70921;BME280;58572;48.110;19.838;2023-12-07T05:55:23;97602.09;;;4.21;72.33
70921;BME280;58572;48.110;19.838;2023-12-07T05:57:50;97597.03;;;4.24;72.36
70921;BME280;58572;48.110;19.838;2023-12-07T06:00:18;97601.16;;;4.32;72.09
70921;BME280;58572;48.110;19.838;2023-12-07T06:02:46;97602.91;;;4.21;72.03
70921;BME280;58572;48.110;19.838;2023-12-07T06:05:13;97612.44;;;4.12;72.76
70921;BME280;58572;48.110;19.838;2023-12-07T06:07:41;97608.34;;;4.26;71.89
70921;BME280;58572;48.110;19.838;2023-12-07T06:10:09;97604.47;;;4.39;72.02
70921;BME280;58572;48.110;19.838;2023-12-07T06:12:38;97608.03;;;4.44;71.54
70921;BME280;58572;48.110;19.838;2023-12-07T06:15:06;97609.16;;;4.27;71.75
70921;BME280;58572;48.110;19.838;2023-12-07T06:17:33;97613.22;;;4.29;72.25
70921;BME280;58572;48.110;19.838;2023-12-07T06:20:01;97612.16;;;4.30;71.98
70921;BME280;58572;48.110;19.838;2023-12-07T06:22:28;97620.28;;;4.35;71.79
70921;BME280;58572;48.110;19.838;2023-12-07T06:24:56;97626.31;;;4.42;71.69
70921;BME280;58572;48.110;19.838;2023-12-07T06:27:23;97623.88;;;4.41;71.50
70921;BME280;58572;48.110;19.838;2023-12-07T06:29:52;97622.25;;;4.40;71.67
70921;BME280;58572;48.110;19.838;2023-12-07T06:32:19;97627.88;;;4.38;71.42
70921;BME280;58572;48.110;19.838;2023-12-07T06:34:46;97631.56;;;4.32;71.52
70921;BME280;58572;48.110;19.838;2023-12-07T06:37:13;97635.38;;;4.36;71.45
70921;BME280;58572;48.110;19.838;2023-12-07T06:39:40;97632.13;;;4.34;71.30
70921;BME280;58572;48.110;19.838;2023-12-07T06:42:08;97631.38;;;4.39;71.62
70921;BME280;58572;48.110;19.838;2023-12-07T06:44:35;97637.38;;;4.24;71.73
70921;BME280;58572;48.110;19.838;2023-12-07T06:47:03;97626.19;;;4.32;71.88
70921;BME280;58572;48.110;19.838;2023-12-07T06:49:31;97636.50;;;4.40;71.78
70921;BME280;58572;48.110;19.838;2023-12-07T06:51:58;97638.94;;;4.42;71.75
70921;BME280;58572;48.110;19.838;2023-12-07T06:54:25;97642.03;;;4.51;71.37
70921;BME280;58572;48.110;19.838;2023-12-07T06:56:52;97652.88;;;4.17;72.10
70921;BME280;58572;48.110;19.838;2023-12-07T06:59:20;97640.63;;;4.26;72.81
70921;BME280;58572;48.110;19.838;2023-12-07T07:01:46;97640.38;;;4.49;72.15
70921;BME280;58572;48.110;19.838;2023-12-07T07:04:15;97647.91;;;4.47;71.69
70921;BME280;58572;48.110;19.838;2023-12-07T07:06:43;97652.78;;;4.51;71.82
70921;BME280;58572;48.110;19.838;2023-12-07T07:09:12;97652.09;;;4.60;71.20
70921;BME280;58572;48.110;19.838;2023-12-07T07:11:39;97644.72;;;4.51;71.51
70921;BME280;58572;48.110;19.838;2023-12-07T07:14:06;97650.84;;;4.46;71.47
70921;BME280;58572;48.110;19.838;2023-12-07T07:16:33;97644.53;;;4.57;71.57
70921;BME280;58572;48.110;19.838;2023-12-07T07:19:00;97653.03;;;4.71;71.10
70921;BME280;58572;48.110;19.838;2023-12-07T07:21:29;97649.03;;;4.73;70.80
70921;BME280;58572;48.110;19.838;2023-12-07T07:23:57;97651.22;;;4.76;70.77
70921;BME280;58572;48.110;19.838;2023-12-07T07:26:24;97648.06;;;4.85;70.36
70921;BME280;58572;48.110;19.838;2023-12-07T07:28:52;97655.97;;;4.91;70.33
70921;BME280;58572;48.110;19.838;2023-12-07T07:31:19;97588.31;;;4.61;70.05
70921;BME280;58572;48.110;19.838;2023-12-07T07:33:47;97593.06;;;4.54;71.21
70921;BME280;58572;48.110;19.838;2023-12-07T07:36:14;97670.06;;;4.76;72.07
70921;BME280;58572;48.110;19.838;2023-12-07T07:38:42;97669.78;;;5.00;70.40
70921;BME280;58572;48.110;19.838;2023-12-07T07:41:11;97667.25;;;5.15;69.98
70921;BME280;58572;48.110;19.838;2023-12-07T07:43:38;97575.03;;;4.10;73.74
70921;BME280;58572;48.110;19.838;2023-12-07T07:46:06;97559.63;;;4.06;71.58
70921;BME280;58572;48.110;19.838;2023-12-07T07:48:34;97675.28;;;4.23;74.16
70921;BME280;58572;48.110;19.838;2023-12-07T07:51:01;97614.41;;;4.38;72.18
70921;BME280;58572;48.110;19.838;2023-12-07T07:53:29;97617.97;;;4.66;70.47
70921;BME280;58572;48.110;19.838;2023-12-07T07:55:57;97678.28;;;5.13;70.14
70921;BME280;58572;48.110;19.838;2023-12-07T07:58:25;97676.56;;;5.02;70.27
70921;BME280;58572;48.110;19.838;2023-12-07T08:00:52;97679.31;;;5.07;69.98
70921;BME280;58572;48.110;19.838;2023-12-07T08:03:19;97674.91;;;5.01;70.30
70921;BME280;58572;48.110;19.838;2023-12-07T08:05:46;97679.41;;;5.18;69.98
70921;BME280;58572;48.110;19.838;2023-12-07T08:08:14;97652.09;;;4.82;70.40
70921;BME280;58572;48.110;19.838;2023-12-07T08:10:41;97684.28;;;4.72;71.58
70921;BME280;58572;48.110;19.838;2023-12-07T08:13:10;97690.84;;;4.81;71.29
70921;BME280;58572;48.110;19.838;2023-12-07T08:15:37;97693.34;;;4.66;72.04
70921;BME280;58572;48.110;19.838;2023-12-07T08:18:04;97683.97;;;4.90;70.53
70921;BME280;58572;48.110;19.838;2023-12-07T08:20:31;97690.41;;;4.89;70.87
70921;BME280;58572;48.110;19.838;2023-12-07T08:22:58;97686.66;;;4.46;72.76
70921;BME280;58572;48.110;19.838;2023-12-07T08:25:25;97691.97;;;4.85;71.44
70921;BME280;58572;48.110;19.838;2023-12-07T08:27:52;97693.97;;;4.95;70.82
70921;BME280;58572;48.110;19.838;2023-12-07T08:30:22;97700.22;;;5.00;70.62
70921;BME280;58572;48.110;19.838;2023-12-07T08:32:49;97461.72;;;3.41;70.90
70921;BME280;58572;48.110;19.838;2023-12-07T08:35:16;97703.13;;;4.94;70.61
70921;BME280;58572;48.110;19.838;2023-12-07T08:37:43;97703.25;;;5.04;70.26
70921;BME280;58572;48.110;19.838;2023-12-07T08:40:11;97709.19;;;5.06;70.15
70921;BME280;58572;48.110;19.838;2023-12-07T08:42:40;97708.25;;;4.95;70.88
70921;BME280;58572;48.110;19.838;2023-12-07T08:45:08;97709.44;;;4.82;71.31
70921;BME280;58572;48.110;19.838;2023-12-07T08:47:37;97685.16;;;4.56;71.43
70921;BME280;58572;48.110;19.838;2023-12-07T08:50:05;97715.34;;;4.79;71.31
70921;BME280;58572;48.110;19.838;2023-12-07T08:52:33;97722.03;;;4.77;71.51
70921;BME280;58572;48.110;19.838;2023-12-07T08:55:01;97719.03;;;4.73;71.60
70921;BME280;58572;48.110;19.838;2023-12-07T08:57:28;97717.59;;;4.88;71.26
70921;BME280;58572;48.110;19.838;2023-12-07T08:59:55;97729.97;;;4.67;71.81
70921;BME280;58572;48.110;19.838;2023-12-07T09:02:23;97734.00;;;3.47;77.44
70921;BME280;58572;48.110;19.838;2023-12-07T09:04:52;97732.09;;;4.26;73.62
70921;BME280;58572;48.110;19.838;2023-12-07T09:07:19;97720.66;;;4.53;73.16
70921;BME280;58572;48.110;19.838;2023-12-07T09:09:46;97726.44;;;4.83;72.17
70921;BME280;58572;48.110;19.838;2023-12-07T09:12:13;97716.31;;;5.17;71.55
70921;BME280;58572;48.110;19.838;2023-12-07T09:14:41;97706.59;;;5.38;69.41
70921;BME280;58572;48.110;19.838;2023-12-07T09:17:08;97712.69;;;5.28;70.29
70921;BME280;58572;48.110;19.838;2023-12-07T09:19:36;97716.25;;;5.61;70.14
70921;BME280;58572;48.110;19.838;2023-12-07T09:22:05;97654.78;;;5.31;69.09
70921;BME280;58572;48.110;19.838;2023-12-07T09:24:32;97716.25;;;5.61;68.76
70921;BME280;58572;48.110;19.838;2023-12-07T09:26:59;97716.97;;;5.51;69.72
70921;BME280;58572;48.110;19.838;2023-12-07T09:29:26;97717.47;;;5.48;69.12
70921;BME280;58572;48.110;19.838;2023-12-07T09:31:54;97673.75;;;5.41;68.80
70921;BME280;58572;48.110;19.838;2023-12-07T09:34:21;97706.06;;;5.68;69.01
70921;BME280;58572;48.110;19.838;2023-12-07T09:36:48;97705.41;;;5.56;69.26
70921;BME280;58572;48.110;19.838;2023-12-07T09:39:17;97699.94;;;5.77;69.12
70921;BME280;58572;48.110;19.838;2023-12-07T09:41:44;97704.44;;;5.94;69.13
70921;BME280;58572;48.110;19.838;2023-12-07T09:44:12;97707.28;;;5.82;68.99
70921;BME280;58572;48.110;19.838;2023-12-07T09:46:40;97702.81;;;5.93;68.56
70921;BME280;58572;48.110;19.838;2023-12-07T09:49:06;97704.72;;;5.97;69.55
70921;BME280;58572;48.110;19.838;2023-12-07T09:51:33;97702.63;;;6.04;69.45
70921;BME280;58572;48.110;19.838;2023-12-07T09:54:03;97707.38;;;5.92;69.48
70921;BME280;58572;48.110;19.838;2023-12-07T09:56:32;97681.53;;;5.69;69.11
70921;BME280;58572;48.110;19.838;2023-12-07T09:58:59;97702.09;;;5.75;68.88
70921;BME280;58572;48.110;19.838;2023-12-07T10:01:30;97696.09;;;5.68;69.84
70921;BME280;58572;48.110;19.838;2023-12-07T10:04:15;97698.75;;;5.63;70.78
70921;BME280;58572;48.110;19.838;2023-12-07T10:06:43;97705.75;;;5.64;69.91
70921;BME280;58572;48.110;19.838;2023-12-07T10:09:11;97694.25;;;5.74;69.98
70921;BME280;58572;48.110;19.838;2023-12-07T10:11:40;97694.56;;;5.77;69.43
70921;BME280;58572;48.110;19.838;2023-12-07T10:14:09;97694.69;;;5.61;69.46
70921;BME280;58572;48.110;19.838;2023-12-07T10:16:37;97686.34;;;5.62;69.27
70921;BME280;58572;48.110;19.838;2023-12-07T10:19:14;97698.66;;;5.53;70.04
70921;BME280;58572;48.110;19.838;2023-12-07T10:21:43;97701.72;;;5.35;71.38
70921;BME280;58572;48.110;19.838;2023-12-07T10:24:11;97704.06;;;5.85;69.89
70921;BME280;58572;48.110;19.838;2023-12-07T10:26:40;97669.63;;;5.92;68.56
70921;BME280;58572;48.110;19.838;2023-12-07T10:29:07;97705.94;;;5.26;71.06
70921;BME280;58572;48.110;19.838;2023-12-07T10:31:36;97704.88;;;4.83;72.89
70921;BME280;58572;48.110;19.838;2023-12-07T10:34:04;97708.28;;;5.44;70.67
70921;BME280;58572;48.110;19.838;2023-12-07T10:36:32;97708.44;;;4.67;74.17
70921;BME280;58572;48.110;19.838;2023-12-07T10:38:59;97703.66;;;5.39;70.84
70921;BME280;58572;48.110;19.838;2023-12-07T10:41:26;97694.50;;;5.72;70.32
70921;BME280;58572;48.110;19.838;2023-12-07T10:43:59;97702.19;;;6.18;68.53
70921;BME280;58572;48.110;19.838;2023-12-07T10:46:26;97703.59;;;5.12;71.57
70921;BME280;58572;48.110;19.838;2023-12-07T10:48:57;97676.13;;;4.67;72.35
70921;BME280;58572;48.110;19.838;2023-12-07T10:51:30;97610.47;;;4.46;72.16
70921;BME280;58572;48.110;19.838;2023-12-07T10:54:02;97650.94;;;5.00;70.47
70921;BME280;58572;48.110;19.838;2023-12-07T10:56:35;97705.50;;;4.68;73.56
70921;BME280;58572;48.110;19.838;2023-12-07T10:59:09;97709.31;;;4.51;74.06
70921;BME280;58572;48.110;19.838;2023-12-07T11:01:38;97709.03;;;5.18;71.95
70921;BME280;58572;48.110;19.838;2023-12-07T11:04:06;97712.00;;;5.38;71.08
70921;BME280;58572;48.110;19.838;2023-12-07T11:06:34;97721.91;;;4.67;72.94
70921;BME280;58572;48.110;19.838;2023-12-07T11:09:06;97710.88;;;4.90;72.04
70921;BME280;58572;48.110;19.838;2023-12-07T11:11:41;97685.28;;;4.66;72.62
70921;BME280;58572;48.110;19.838;2023-12-07T11:14:12;97565.44;;;3.59;72.57
70921;BME280;58572;48.110;19.838;2023-12-07T11:16:41;97721.72;;;4.52;73.55
70921;BME280;58572;48.110;19.838;2023-12-07T11:22:11;97729.81;;;3.68;76.09
70921;BME280;58572;48.110;19.838;2023-12-07T11:24:52;97721.53;;;4.80;72.77
70921;BME280;58572;48.110;19.838;2023-12-07T11:27:19;97738.47;;;3.87;75.98
70921;BME280;58572;48.110;19.838;2023-12-07T11:29:48;97731.28;;;4.09;75.54
70921;BME280;58572;48.110;19.838;2023-12-07T11:32:16;97729.00;;;4.01;76.28
70921;BME280;58572;48.110;19.838;2023-12-07T11:34:43;97723.97;;;4.81;73.17
70921;BME280;58572;48.110;19.838;2023-12-07T11:37:14;97723.28;;;4.91;72.33
70921;BME280;58572;48.110;19.838;2023-12-07T11:39:42;97731.19;;;4.76;72.03
70921;BME280;58572;48.110;19.838;2023-12-07T11:42:12;97707.09;;;4.26;73.80
70921;BME280;58572;48.110;19.838;2023-12-07T11:44:42;97733.53;;;4.51;73.61
70921;BME280;58572;48.110;19.838;2023-12-07T11:47:15;97728.34;;;4.66;73.63
70921;BME280;58572;48.110;19.838;2023-12-07T11:49:43;97723.41;;;4.79;72.60
70921;BME280;58572;48.110;19.838;2023-12-07T11:52:14;97727.44;;;4.38;73.61
70921;BME280;58572;48.110;19.838;2023-12-07T11:54:45;97731.69;;;4.34;74.15
70921;BME280;58572;48.110;19.838;2023-12-07T11:57:13;97736.91;;;4.24;74.77
70921;BME280;58572;48.110;19.838;2023-12-07T11:59:41;97737.31;;;3.82;75.69
70921;BME280;58572;48.110;19.838;2023-12-07T12:02:11;97728.03;;;3.73;75.98
70921;BME280;58572;48.110;19.838;2023-12-07T12:04:40;97679.91;;;3.27;77.00
70921;BME280;58572;48.110;19.838;2023-12-07T12:07:07;97740.06;;;3.71;76.74
70921;BME280;58572;48.110;19.838;2023-12-07T12:09:35;97728.44;;;3.99;75.48
70921;BME280;58572;48.110;19.838;2023-12-07T12:12:02;97730.97;;;3.89;75.65
70921;BME280;58572;48.110;19.838;2023-12-07T12:14:29;97735.44;;;4.00;75.76
70921;BME280;58572;48.110;19.838;2023-12-07T12:16:57;97733.75;;;4.27;74.57
70921;BME280;58572;48.110;19.838;2023-12-07T12:19:25;97736.84;;;4.19;74.87
70921;BME280;58572;48.110;19.838;2023-12-07T12:21:54;97729.66;;;4.08;74.71
70921;BME280;58572;48.110;19.838;2023-12-07T12:24:21;97713.59;;;3.96;74.63
70921;BME280;58572;48.110;19.838;2023-12-07T12:26:48;97741.56;;;4.12;74.97
70921;BME280;58572;48.110;19.838;2023-12-07T12:29:18;97743.19;;;4.13;74.66
70921;BME280;58572;48.110;19.838;2023-12-07T12:31:45;97737.66;;;4.20;73.87
70921;BME280;58572;48.110;19.838;2023-12-07T12:34:12;97734.88;;;4.31;73.76
70921;BME280;58572;48.110;19.838;2023-12-07T12:36:41;97736.16;;;4.12;74.48
70921;BME280;58572;48.110;19.838;2023-12-07T12:39:08;97742.88;;;4.26;74.24
70921;BME280;58572;48.110;19.838;2023-12-07T12:41:36;97744.50;;;4.27;74.13
70921;BME280;58572;48.110;19.838;2023-12-07T12:44:04;97744.66;;;4.21;74.47
70921;BME280;58572;48.110;19.838;2023-12-07T12:46:33;97752.41;;;4.17;74.40
70921;BME280;58572;48.110;19.838;2023-12-07T12:49:03;97750.94;;;4.26;74.06
70921;BME280;58572;48.110;19.838;2023-12-07T12:51:30;97722.34;;;4.20;73.97
70921;BME280;58572;48.110;19.838;2023-12-07T12:53:59;97757.88;;;4.22;74.46
70921;BME280;58572;48.110;19.838;2023-12-07T12:56:27;97761.91;;;4.58;73.13
70921;BME280;58572;48.110;19.838;2023-12-07T12:58:54;97741.19;;;3.58;75.11
70921;BME280;58572;48.110;19.838;2023-12-07T13:01:23;97726.00;;;3.80;75.23
70921;BME280;58572;48.110;19.838;2023-12-07T13:03:50;97724.84;;;3.76;74.73
70921;BME280;58572;48.110;19.838;2023-12-07T13:06:17;97763.75;;;4.19;73.92